Fortuna, Argentina
Current Conditions -  °F | °C
As of 4:00 PM on Monday 22 Dec 2014 (Local Time) from SAOC Reporting Station
Scattered Clouds Scattered Clouds  
Wind Chill: 70°   Ceiling: Unl
Heat Index: 70°   Visibility: 6mi
Dew Point: 30°   Wind: 8mph
Humidity: 23%   Direction: 180°S
Pressure: 30.12"   Gusts: NA
Location:  35.13°S, 65.54°W
Report Text: SAOC 221900Z 18007KT 9999 FEW025 SCT20021/M01 Q1020
Loading
Personal Weather Stations






























Interactive Weather Map New forecast layout! Learn more

10-Day Weather Forecast

Advertisements
Track Severe Weather on mobile